createdAt,value
2023-01-15T00:02:12.974Z,5.65
2023-01-15T00:05:08.586Z,5.68
2023-01-15T00:07:52.554Z,5.76
2023-01-15T00:10:45.372Z,5.80
2023-01-15T00:13:38.097Z,5.87
2023-01-15T00:16:33.532Z,5.86
2023-01-15T00:19:47.433Z,5.85
2023-01-15T00:22:33.778Z,5.84
2023-01-15T00:25:43.814Z,5.84
2023-01-15T00:28:36.595Z,5.80
2023-01-15T00:31:30.300Z,5.80
2023-01-15T00:34:23.909Z,5.77
2023-01-15T00:37:17.405Z,5.76
2023-01-15T00:40:12.335Z,5.82
2023-01-15T00:43:05.202Z,5.86
2023-01-15T00:45:51.425Z,5.88
2023-01-15T00:48:44.204Z,5.90
2023-01-15T00:51:31.342Z,5.93
2023-01-15T00:54:24.236Z,5.92
2023-01-15T00:57:18.302Z,5.88
2023-01-15T01:00:13.393Z,5.87
2023-01-15T01:03:07.488Z,5.90
2023-01-15T01:06:04.906Z,5.91
2023-01-15T01:08:58.386Z,5.93
2023-01-15T01:11:52.251Z,5.96
2023-01-15T01:14:46.596Z,5.95
2023-01-15T01:17:40.360Z,5.97
2023-01-15T01:20:33.614Z,5.97
2023-01-15T01:23:27.490Z,5.98
2023-01-15T01:26:22.122Z,5.97
2023-01-15T01:29:17.940Z,5.96
2023-01-15T01:32:11.320Z,5.94
2023-01-15T01:35:04.647Z,5.94
2023-01-15T01:38:00.291Z,5.96
2023-01-15T01:40:53.612Z,6.01
2023-01-15T01:44:03.036Z,6.08
2023-01-15T01:46:51.673Z,6.07
2023-01-15T01:49:39.455Z,5.98
2023-01-15T01:52:38.134Z,5.92
2023-01-15T01:55:32.269Z,5.97
2023-01-15T01:58:30.018Z,6.00
2023-01-15T02:01:25.604Z,5.99
2023-01-15T02:04:19.825Z,6.01
2023-01-15T02:07:12.725Z,6.05
2023-01-15T02:09:57.817Z,6.11
2023-01-15T02:12:56.720Z,6.13
2023-01-15T02:15:56.837Z,6.17
2023-01-15T02:18:55.423Z,6.19
2023-01-15T02:21:54.188Z,6.20
2023-01-15T02:25:15.881Z,6.23
2023-01-15T02:28:18.096Z,6.20
2023-01-15T02:31:16.913Z,6.20
2023-01-15T02:34:14.962Z,6.20
2023-01-15T02:37:07.672Z,6.14
2023-01-15T02:40:04.426Z,6.06
2023-01-15T02:42:59.226Z,6.06
2023-01-15T02:45:55.485Z,6.04
2023-01-15T02:48:53.928Z,6.19
2023-01-15T02:51:52.860Z,6.24
2023-01-15T02:54:42.128Z,6.11
2023-01-15T02:57:38.771Z,6.06
2023-01-15T03:00:39.649Z,6.07
2023-01-15T03:03:43.561Z,6.02
2023-01-15T03:06:42.864Z,6.05
2023-01-15T03:09:36.039Z,6.18
2023-01-15T03:12:32.232Z,6.21
2023-01-15T03:15:40.750Z,6.16
2023-01-15T03:18:56.568Z,6.11
2023-01-15T03:21:55.028Z,6.09
2023-01-15T03:24:52.582Z,6.08
2023-01-15T03:27:45.585Z,6.07
2023-01-15T03:30:38.992Z,6.04
2023-01-15T03:33:32.437Z,6.02
2023-01-15T03:36:25.248Z,6.05
2023-01-15T03:39:18.557Z,6.16
2023-01-15T03:42:21.575Z,6.23
2023-01-15T03:45:20.607Z,6.28
2023-01-15T03:48:20.812Z,6.32
2023-01-15T03:51:19.907Z,6.33
2023-01-15T03:54:23.052Z,6.37
2023-01-15T03:57:32.558Z,6.35
2023-01-15T04:00:31.676Z,6.33
2023-01-15T04:03:26.718Z,6.34
2023-01-15T04:06:22.608Z,6.30
2023-01-15T04:09:17.137Z,6.34
2023-01-15T04:12:11.351Z,6.38
2023-01-15T04:15:04.531Z,6.53
2023-01-15T04:17:57.563Z,6.67
2023-01-15T04:20:50.909Z,6.71
2023-01-15T04:23:44.522Z,6.78
2023-01-15T04:26:37.290Z,6.81
2023-01-15T04:29:29.266Z,6.83
2023-01-15T04:32:22.396Z,6.88
2023-01-15T04:35:16.080Z,6.92
2023-01-15T04:38:09.007Z,6.95
2023-01-15T04:41:23.000Z,6.98
2023-01-15T04:44:15.789Z,6.97
2023-01-15T04:47:09.100Z,6.96
2023-01-15T04:50:02.096Z,6.94
2023-01-15T04:52:55.202Z,6.90
2023-01-15T04:55:47.937Z,6.86
2023-01-15T04:58:40.772Z,6.86
2023-01-15T05:01:33.685Z,6.86
2023-01-15T05:04:26.574Z,6.86
2023-01-15T05:07:20.050Z,6.86
2023-01-15T05:10:13.871Z,6.85
2023-01-15T05:13:06.748Z,6.84
2023-01-15T05:16:21.240Z,6.84
2023-01-15T05:19:08.789Z,6.84
2023-01-15T05:22:02.154Z,6.87
2023-01-15T05:24:54.939Z,6.90
2023-01-15T05:27:47.670Z,6.95
2023-01-15T05:30:40.525Z,6.90
2023-01-15T05:33:33.268Z,6.95
2023-01-15T05:36:28.516Z,6.94
2023-01-15T05:39:21.315Z,6.91
2023-01-15T05:42:14.169Z,6.92
2023-01-15T05:45:08.434Z,6.93
2023-01-15T05:48:01.188Z,6.90
2023-01-15T05:50:53.899Z,7.02
2023-01-15T05:53:37.649Z,7.17
2023-01-15T05:56:30.604Z,7.28
2023-01-15T05:59:25.507Z,7.22
2023-01-15T06:02:38.359Z,7.17
2023-01-15T06:05:32.259Z,7.09
2023-01-15T06:08:25.506Z,7.10
2023-01-15T06:11:12.462Z,7.25
2023-01-15T06:14:05.297Z,7.95
2023-01-15T06:16:46.731Z,8.37
2023-01-15T06:19:40.651Z,8.18
2023-01-15T06:22:33.650Z,7.27
2023-01-15T06:25:26.476Z,6.48
2023-01-15T06:28:19.549Z,5.89
2023-01-15T06:31:15.677Z,5.73
2023-01-15T06:34:01.127Z,6.46
2023-01-15T06:36:54.821Z,6.81
2023-01-15T06:39:47.615Z,7.04
2023-01-15T06:42:57.438Z,7.48
2023-01-15T06:46:22.166Z,7.71
2023-01-15T06:48:55.475Z,7.72
2023-01-15T06:51:48.264Z,7.77
2023-01-15T06:54:34.081Z,7.80
2023-01-15T06:57:29.302Z,7.75
2023-01-15T07:00:23.355Z,7.72
2023-01-15T07:03:09.093Z,7.71
2023-01-15T07:06:06.710Z,7.81
2023-01-15T07:08:52.156Z,7.77
2023-01-15T07:11:50.636Z,7.75
2023-01-15T07:14:43.455Z,7.81
2023-01-15T07:17:36.400Z,7.78
2023-01-15T07:20:29.437Z,7.78
2023-01-15T07:23:05.083Z,7.76
2023-01-15T07:25:40.065Z,7.75
2023-01-15T07:28:32.811Z,7.76
2023-01-15T07:31:25.549Z,7.88
2023-01-15T07:34:18.697Z,8.21
2023-01-15T07:37:11.995Z,9.26
2023-01-15T07:39:58.078Z,9.91
2023-01-15T07:43:08.257Z,9.73
2023-01-15T07:46:18.653Z,8.65
2023-01-15T07:49:24.728Z,7.78
2023-01-15T07:52:19.895Z,7.19
2023-01-15T07:55:13.922Z,6.82
2023-01-15T07:58:07.160Z,6.55
2023-01-15T08:01:00.462Z,6.59
2023-01-15T08:03:53.859Z,7.26
2023-01-15T08:06:46.748Z,7.63
2023-01-15T08:09:39.863Z,7.81
2023-01-15T08:12:50.416Z,7.93
2023-01-15T08:15:45.623Z,8.03
2023-01-15T08:18:31.368Z,8.12
2023-01-15T08:21:23.789Z,8.20
2023-01-15T08:24:16.597Z,8.23
2023-01-15T08:27:09.535Z,8.22
2023-01-15T08:30:02.613Z,8.14
2023-01-15T08:33:00.386Z,8.13
2023-01-15T08:35:47.079Z,8.09
2023-01-15T08:38:38.758Z,8.03
2023-01-15T08:41:30.492Z,8.22
2023-01-15T08:44:23.930Z,8.84
2023-01-15T08:47:09.737Z,9.33
2023-01-15T08:49:55.256Z,9.78
2023-01-15T08:52:50.291Z,9.99
2023-01-15T08:55:41.914Z,9.18
2023-01-15T08:58:31.854Z,8.42
2023-01-15T09:01:10.110Z,7.90
2023-01-15T09:04:02.086Z,7.49
2023-01-15T09:06:55.651Z,7.24
2023-01-15T09:09:39.618Z,7.08
2023-01-15T09:12:31.709Z,6.94
2023-01-15T09:15:19.262Z,6.81
2023-01-15T09:18:13.165Z,7.14
2023-01-15T09:20:58.028Z,8.30
2023-01-15T09:23:50.964Z,9.24
2023-01-15T09:26:44.061Z,9.63
2023-01-15T09:29:37.048Z,9.05
2023-01-15T09:32:17.799Z,8.44
2023-01-15T09:35:05.936Z,7.97
2023-01-15T09:38:00.993Z,7.65
2023-01-15T09:40:42.120Z,7.47
2023-01-15T09:43:51.082Z,7.34
2023-01-15T09:46:47.571Z,7.24
2023-01-15T09:49:59.107Z,7.20
2023-01-15T09:53:12.130Z,7.20
2023-01-15T09:56:06.164Z,7.20
2023-01-15T09:59:01.164Z,7.17
2023-01-15T10:01:55.146Z,7.14
2023-01-15T10:04:53.645Z,7.11
2023-01-15T10:07:36.017Z,7.09
2023-01-15T10:10:34.130Z,7.07
2023-01-15T10:13:28.947Z,7.82
2023-01-15T10:16:23.387Z,9.13
2023-01-15T10:19:12.091Z,9.99
2023-01-15T10:22:12.909Z,10.31
2023-01-15T10:24:59.935Z,9.63
2023-01-15T10:27:54.805Z,8.94
2023-01-15T10:30:49.037Z,8.43
2023-01-15T10:33:39.728Z,8.13
2023-01-15T10:36:22.961Z,7.91
2023-01-15T10:39:24.267Z,7.75
2023-01-15T10:42:33.153Z,7.63
2023-01-15T10:45:30.005Z,7.57
2023-01-15T10:48:23.155Z,7.53
2023-01-15T10:51:19.205Z,7.49
2023-01-15T10:54:09.341Z,7.45
2023-01-15T10:57:11.728Z,7.41
2023-01-15T11:00:08.755Z,7.33
2023-01-15T11:03:07.683Z,7.26
2023-01-15T11:06:02.281Z,7.20
2023-01-15T11:09:12.856Z,7.14
2023-01-15T11:12:41.027Z,7.11
2023-01-15T11:15:51.835Z,7.11
2023-01-15T11:19:04.461Z,7.13
2023-01-15T11:21:58.082Z,7.17
2023-01-15T11:25:01.123Z,7.18
2023-01-15T11:27:56.673Z,7.20
2023-01-15T11:30:56.512Z,7.20
2023-01-15T11:33:47.065Z,7.21
2023-01-15T11:36:40.068Z,7.20
2023-01-15T11:39:33.550Z,7.20
2023-01-15T11:42:37.722Z,7.20
2023-01-15T11:45:47.785Z,7.18
2023-01-15T11:48:48.028Z,7.17
2023-01-15T11:51:23.912Z,7.16
2023-01-15T11:54:19.245Z,7.15
2023-01-15T11:57:13.372Z,7.11
2023-01-15T11:59:53.335Z,7.06
2023-01-15T12:02:38.466Z,6.97
2023-01-15T12:05:20.848Z,6.89
2023-01-15T12:08:25.081Z,6.84
2023-01-15T12:11:46.418Z,7.26
2023-01-15T12:14:54.641Z,8.52
2023-01-15T12:18:07.663Z,9.41
2023-01-15T12:21:04.709Z,9.74
2023-01-15T12:24:14.521Z,9.04
2023-01-15T12:27:24.710Z,8.35
2023-01-15T12:30:20.880Z,7.96
2023-01-15T12:33:37.206Z,7.67
2023-01-15T12:36:33.757Z,7.44
2023-01-15T12:39:32.176Z,7.25
2023-01-15T12:42:44.273Z,7.10
2023-01-15T12:45:41.549Z,6.98
2023-01-15T12:48:41.023Z,6.84
2023-01-15T12:51:28.811Z,6.91
2023-01-15T12:54:30.944Z,7.69
2023-01-15T12:57:32.607Z,8.61
2023-01-15T13:00:33.154Z,9.23
2023-01-15T13:03:30.333Z,9.47
2023-01-15T13:06:28.827Z,8.69
2023-01-15T13:09:10.584Z,8.03
2023-01-15T13:12:04.971Z,7.48
2023-01-15T13:14:58.303Z,7.06
2023-01-15T13:17:39.476Z,6.76
2023-01-15T13:20:48.916Z,6.54
2023-01-15T13:24:02.894Z,6.63
2023-01-15T13:27:12.198Z,7.35
2023-01-15T13:30:16.947Z,7.54
2023-01-15T13:33:18.042Z,7.59
2023-01-15T13:35:53.618Z,7.58
2023-01-15T13:38:32.409Z,7.93
2023-01-15T13:41:12.247Z,9.08
2023-01-15T13:44:04.304Z,9.95
2023-01-15T13:47:06.466Z,10.04
2023-01-15T13:49:51.007Z,9.10
2023-01-15T13:52:44.168Z,8.16
2023-01-15T13:55:33.633Z,7.51
2023-01-15T13:58:27.441Z,7.01
2023-01-15T14:01:34.210Z,6.62
2023-01-15T14:04:39.047Z,6.32
2023-01-15T14:07:38.572Z,6.37
2023-01-15T14:10:34.950Z,6.87
2023-01-15T14:13:54.996Z,7.05
2023-01-15T14:17:00.157Z,7.57
2023-01-15T14:20:22.273Z,8.68
2023-01-15T14:23:40.011Z,9.00
2023-01-15T14:26:33.785Z,8.96
2023-01-15T14:29:47.215Z,8.57
2023-01-15T14:32:54.300Z,7.62
2023-01-15T14:35:50.587Z,6.91
2023-01-15T14:38:52.752Z,6.41
2023-01-15T14:41:59.973Z,6.19
2023-01-15T14:45:03.297Z,6.57
2023-01-15T14:47:58.008Z,7.71
2023-01-15T14:50:52.795Z,8.66
2023-01-15T14:53:49.809Z,9.12
2023-01-15T14:56:47.758Z,9.54
2023-01-15T14:59:50.101Z,9.56
2023-01-15T15:02:40.400Z,9.55
2023-01-15T15:05:36.599Z,9.41
2023-01-15T15:08:34.020Z,9.58
2023-01-15T15:11:52.947Z,9.57
2023-01-15T15:14:27.756Z,9.28
2023-01-15T15:17:31.105Z,9.39
2023-01-15T15:20:31.561Z,9.27
2023-01-15T15:23:29.946Z,9.21
2023-01-15T15:26:28.485Z,9.20
2023-01-15T15:29:22.614Z,9.39
2023-01-15T15:32:19.106Z,9.33
2023-01-15T15:35:27.578Z,9.23
2023-01-15T15:38:20.889Z,8.96
2023-01-15T15:41:07.838Z,8.90
2023-01-15T15:44:04.740Z,8.91
2023-01-15T15:47:14.888Z,8.91
2023-01-15T15:50:08.991Z,9.06
2023-01-15T15:53:04.625Z,9.18
2023-01-15T15:55:59.175Z,9.05
2023-01-15T15:58:52.244Z,8.93
2023-01-15T16:01:45.637Z,8.87
2023-01-15T16:04:38.502Z,8.74
2023-01-15T16:07:33.843Z,8.70
2023-01-15T16:10:21.041Z,8.66
2023-01-15T16:12:57.755Z,8.60
2023-01-15T16:15:35.891Z,8.61
2023-01-15T16:18:25.485Z,8.54
2023-01-15T16:21:03.003Z,8.45
2023-01-15T16:24:03.726Z,8.52
2023-01-15T16:26:50.759Z,8.79
2023-01-15T16:29:48.913Z,9.03
2023-01-15T16:32:33.114Z,9.14
2023-01-15T16:35:27.103Z,9.10
2023-01-15T16:38:24.273Z,9.18
2023-01-15T16:41:27.629Z,9.33
2023-01-15T16:44:37.832Z,9.41
2023-01-15T16:47:26.592Z,9.46
2023-01-15T16:50:32.428Z,9.53
2023-01-15T16:53:41.291Z,9.51
2023-01-15T16:56:54.848Z,9.26
2023-01-15T17:00:00.583Z,8.95
2023-01-15T17:02:48.692Z,8.76
2023-01-15T17:05:41.852Z,8.89
2023-01-15T17:08:32.513Z,9.12
2023-01-15T17:11:07.617Z,9.20
2023-01-15T17:13:51.800Z,9.11
2023-01-15T17:16:46.514Z,9.04
2023-01-15T17:19:39.360Z,9.21
2023-01-15T17:22:26.678Z,9.36
2023-01-15T17:25:28.003Z,9.33
2023-01-15T17:28:13.392Z,9.26
2023-01-15T17:31:06.397Z,9.14
2023-01-15T17:33:59.184Z,8.83
2023-01-15T17:36:51.937Z,8.91
2023-01-15T17:39:44.099Z,9.19
2023-01-15T17:42:36.874Z,9.11
2023-01-15T17:45:31.469Z,9.34
2023-01-15T17:48:24.270Z,9.50
2023-01-15T17:51:18.671Z,9.44
2023-01-15T17:54:11.447Z,9.36
2023-01-15T17:57:01.193Z,9.34
2023-01-15T18:00:11.616Z,9.19
2023-01-15T18:03:23.930Z,9.12
2023-01-15T18:06:11.292Z,9.10
2023-01-15T18:09:08.946Z,9.04
2023-01-15T18:12:01.851Z,8.93
2023-01-15T18:14:54.822Z,8.93
2023-01-15T18:17:47.926Z,9.08
2023-01-15T18:20:33.936Z,9.09
2023-01-15T18:23:27.166Z,9.21
2023-01-15T18:26:21.223Z,9.38
2023-01-15T18:29:06.837Z,9.53
2023-01-15T18:31:59.841Z,9.77
2023-01-15T18:34:34.927Z,10.04
2023-01-15T18:37:08.427Z,10.12
2023-01-15T18:40:01.381Z,10.13
2023-01-15T18:43:14.074Z,10.12
2023-01-15T18:46:27.664Z,10.01
2023-01-15T18:49:38.790Z,10.09
2023-01-15T18:52:42.068Z,10.20
2023-01-15T18:55:34.943Z,10.20
2023-01-15T18:58:21.925Z,10.12
2023-01-15T19:01:14.961Z,10.08
2023-01-15T19:04:22.362Z,9.99
2023-01-15T19:07:15.226Z,9.96
2023-01-15T19:10:09.766Z,9.92
2023-01-15T19:13:03.493Z,9.95
2023-01-15T19:16:11.024Z,9.97
2023-01-15T19:19:04.015Z,10.01
2023-01-15T19:22:35.119Z,10.01
2023-01-15T19:25:30.382Z,10.00
2023-01-15T19:28:17.938Z,9.91
2023-01-15T19:31:29.542Z,9.99
2023-01-15T19:34:33.532Z,10.05
2023-01-15T19:37:20.526Z,10.11
2023-01-15T19:39:56.281Z,10.07
2023-01-15T19:43:07.208Z,10.13
2023-01-15T19:46:17.298Z,10.18
2023-01-15T19:49:35.883Z,10.27
2023-01-15T19:52:38.687Z,10.15
2023-01-15T19:55:33.216Z,10.11
2023-01-15T19:58:26.082Z,10.29
2023-01-15T20:01:19.511Z,10.42
2023-01-15T20:04:15.048Z,10.33
2023-01-15T20:07:08.946Z,10.38
2023-01-15T20:10:03.104Z,10.37
2023-01-15T20:13:07.076Z,10.31
2023-01-15T20:16:01.975Z,10.17
2023-01-15T20:18:51.974Z,10.08
2023-01-15T20:21:58.949Z,10.06
2023-01-15T20:24:51.751Z,9.88
2023-01-15T20:27:44.708Z,9.87
2023-01-15T20:30:37.511Z,10.01
2023-01-15T20:33:30.347Z,9.75
2023-01-15T20:36:24.131Z,9.56
2023-01-15T20:39:18.413Z,9.72
2023-01-15T20:42:30.067Z,9.49
2023-01-15T20:45:24.546Z,9.32
2023-01-15T20:48:34.361Z,9.16
2023-01-15T20:51:29.654Z,9.15
2023-01-15T20:54:02.320Z,9.45
2023-01-15T20:56:55.584Z,9.50
2023-01-15T20:59:48.403Z,9.44
2023-01-15T21:02:42.419Z,9.36
2023-01-15T21:05:29.392Z,9.43
2023-01-15T21:08:21.716Z,9.67
2023-01-15T21:10:56.611Z,9.77
2023-01-15T21:13:32.262Z,9.86
2023-01-15T21:16:25.315Z,9.80
2023-01-15T21:19:18.130Z,9.67
2023-01-15T21:22:11.204Z,9.61
2023-01-15T21:24:54.602Z,9.74
2023-01-15T21:27:47.926Z,9.98
2023-01-15T21:30:42.584Z,10.15
2023-01-15T21:33:35.446Z,10.32
2023-01-15T21:36:21.455Z,10.21
2023-01-15T21:39:19.125Z,8.86
2023-01-15T21:42:34.389Z,7.53
2023-01-15T21:45:28.716Z,6.53
2023-01-15T21:48:04.364Z,6.15
2023-01-15T21:50:55.967Z,6.70
2023-01-15T21:53:48.862Z,7.13
2023-01-15T21:56:41.877Z,7.35
2023-01-15T21:59:35.593Z,7.39
2023-01-15T22:02:23.343Z,7.32
2023-01-15T22:05:20.120Z,7.15
2023-01-15T22:08:19.505Z,7.03
2023-01-15T22:11:13.730Z,6.95
2023-01-15T22:14:06.579Z,6.89
2023-01-15T22:17:02.109Z,6.82
2023-01-15T22:19:55.206Z,6.82
2023-01-15T22:22:48.898Z,6.73
2023-01-15T22:25:43.430Z,7.14
2023-01-15T22:28:36.312Z,8.10
2023-01-15T22:31:28.250Z,8.73
2023-01-15T22:34:22.591Z,9.19
2023-01-15T22:37:08.551Z,9.37
2023-01-15T22:40:05.143Z,9.51
2023-01-15T22:42:56.661Z,9.56
2023-01-15T22:45:41.268Z,9.56
2023-01-15T22:48:25.690Z,9.63
2023-01-15T22:51:12.744Z,9.84
2023-01-15T22:53:59.815Z,9.94
2023-01-15T22:56:54.661Z,10.19
2023-01-15T22:59:47.915Z,10.39
2023-01-15T23:02:56.088Z,10.06
2023-01-15T23:05:48.999Z,8.64
2023-01-15T23:08:42.042Z,7.47
2023-01-15T23:11:34.906Z,6.58
2023-01-15T23:14:22.887Z,6.16
2023-01-15T23:17:15.761Z,6.73
2023-01-15T23:20:12.109Z,7.43
2023-01-15T23:23:04.997Z,8.02
2023-01-15T23:25:57.792Z,8.46
2023-01-15T23:28:43.303Z,8.77
2023-01-15T23:31:37.007Z,8.98
2023-01-15T23:34:29.852Z,9.18
2023-01-15T23:37:22.900Z,9.28
2023-01-15T23:40:16.755Z,9.36
2023-01-15T23:43:28.459Z,9.36
2023-01-15T23:46:35.523Z,9.24
2023-01-15T23:49:21.177Z,9.40
2023-01-15T23:52:15.590Z,9.59
2023-01-15T23:55:09.130Z,9.77
2023-01-15T23:58:02.801Z,9.87
